Hovedside
METAR-TAF:

METAR-TAF

Lufthavner :

Arvidsjaur lufthavn

Arvidsjaur, Sverige

breddegrad: 65-35-25N, lengdegrad: 019-16-55E, høyde over havet: 379 m

Gjeldene værobservasjon

Denne rapporten ble laget for 16 minutter siden, klokken 01:20 UTC
Vind 4 kt fra Nordvest
Temperatur -3°C
Luftfuktighet 93%
Trykk 1014 hPa
Sikt 10 km eller mer

METAR: ESNX 110120Z AUTO 32004KT 9999 FEW012/// BKN023/// OVC059/// M03/M04 Q1014

Tid: 02:36 (01:36 UTC)

Varsel

Denne rapporten ble laget for 7 timer og 7 minutter siden, klokken 18:29 UTC
Varsel gyldig fra 10. klokken 18 UTC til 10. klokken 22 UTC
Vind 6 kt fra Nord
Sikt 10 km eller mer
Brutte skyer i en høyde av 500 ft
lett snø
Midlertidig
fra 10. klokken 18 UTC til 10. klokken 22 UTC
Sikt: 1500 m
Brutte skyer i en høyde av 1500 ft
lett snø, kornsnø

TAF: ESNX 101829Z 1018/1022 35006KT 9999 -SN BKN005 TEMPO 1018/1022 1500 -SN SG BKN015

Værobservasjoner og værvarsel for over 4000 flyplasser (METAR- og TAF-rapporter).

Tilgjengelige stasjoner er representert av de røde og gule prikkene på kartet.

Hold musepekeren over prikken for å se navnet på stasjonen.

Klikk så for å se værobservasjoner og -varsler.

For å forandre kartet kan du klikke på den grønne knappen med svart kryss for å zoome inn, på den grønne knappen med strek for å zoome ut, eller på de grønne pilene for å se tilstøtende kart.


METAR-TAF: